Terminal Aerodrome Forecast
Issued by NWS Cleveland, OH

Home | Current Version | Previous Version | Graphics & Text | Print | Product List | Glossary Off
Versions: 1 2 3 4 5 6 7 8 9 10 11 12 13 14 15 16 17 18 19 20 21

000
FTUS41 KCLE 011400 AAA
TAFCAK
TAF AMD
KCAK 011456Z 0115/0212 08005KT P6SM BKN005 OVC015
      TEMPO 0115/0117 SCT005 OVC015
     FM011700 09005KT P6SM BKN015
     FM011900 09005KT P6SM BKN025
     FM012100 09005KT P6SM BKN035
     FM020000 11002KT P6SM FEW035=

USA.gov is the U.S. government's official web portal to all federal, state and local government web resources and services.